VIR5 EGLL-KMIA
Flight info
| Callsign | VIR5 |
|---|---|
| Flight time | N/A |
| Altitude | 34000 |
| Route | CPT3F CPT L9 BUCGO DCT FELCA DCT OFSOX DCT BANBA DCT DINIM/M085F360 DCT 52N020W 52N030W 52N040W 51N050W DCT ALLRY/N0495F360 N476B TOPPS/N0497F380 DCT BEEKN Q97 KALDA DCT BGBRD Q101 SKARP Y313 HOAGG BNFSH3 |
| Aircraft | A35K/H-SDE2E3GHIJ3J4J5LM1ORWXY/LB1D1 |
Departure
| Time | N/A |
|---|---|
| Airport | London Heathrow Airport (EGLL) |
Arrival
| Time | 2026-05-04 10:44 |
|---|---|
| Airport | Miami International Airport (KMIA) |
| Time | Latitude | Longitude | Altitude | Speed | Heading |
|---|---|---|---|---|---|
| 2026-05-04 07:40 | 44.33259 | -69.30052 | 37826 ft | 470 kts | 229° |
| 2026-05-04 07:40 | 44.31038 | -69.33398 | 37826 ft | 470 kts | 229° |
| 2026-05-04 07:41 | 44.26587 | -69.40092 | 37832 ft | 470 kts | 229° |
| 2026-05-04 07:41 | 44.22174 | -69.46714 | 37834 ft | 469 kts | 229° |
| 2026-05-04 07:42 | 44.17730 | -69.53365 | 37831 ft | 468 kts | 229° |
| 2026-05-04 07:42 | 44.13293 | -69.59991 | 37858 ft | 467 kts | 229° |
| 2026-05-04 07:43 | 44.08858 | -69.66597 | 37857 ft | 466 kts | 229° |
| 2026-05-04 07:43 | 44.04427 | -69.73183 | 37860 ft | 466 kts | 229° |
| 2026-05-04 07:44 | 44.00747 | -69.78641 | 37861 ft | 466 kts | 229° |
| 2026-05-04 07:44 | 43.96313 | -69.85203 | 37855 ft | 466 kts | 229° |
| 2026-05-04 07:45 | 43.91870 | -69.91763 | 37879 ft | 465 kts | 229° |
| 2026-05-04 07:45 | 43.87436 | -69.98294 | 37878 ft | 465 kts | 229° |
| 2026-05-04 07:46 | 43.83001 | -70.04812 | 37877 ft | 465 kts | 229° |
| 2026-05-04 07:46 | 43.78559 | -70.11325 | 37871 ft | 465 kts | 229° |
| 2026-05-04 07:47 | 43.74147 | -70.17778 | 37867 ft | 465 kts | 229° |
| 2026-05-04 07:49 | 43.56306 | -70.43725 | 37876 ft | 467 kts | 229° |
| 2026-05-04 07:49 | 43.51824 | -70.50206 | 37884 ft | 467 kts | 229° |
| 2026-05-04 07:50 | 43.47338 | -70.56677 | 37886 ft | 466 kts | 229° |
| 2026-05-04 07:50 | 43.42857 | -70.63126 | 37888 ft | 466 kts | 229° |
| 2026-05-04 07:51 | 43.38372 | -70.69567 | 37888 ft | 466 kts | 229° |
| 2026-05-04 07:51 | 43.33513 | -70.75484 | 37879 ft | 471 kts | 217° |
| 2026-05-04 07:52 | 43.27881 | -70.80155 | 37878 ft | 473 kts | 213° |
| 2026-05-04 07:52 | 43.22160 | -70.84531 | 37879 ft | 474 kts | 213° |
| 2026-05-04 07:54 | 42.99138 | -71.02069 | 37879 ft | 473 kts | 213° |
| 2026-05-04 07:55 | 42.93399 | -71.06450 | 37888 ft | 472 kts | 214° |
| 2026-05-04 07:55 | 42.88085 | -71.11519 | 37917 ft | 467 kts | 221° |
| 2026-05-04 07:56 | 42.82918 | -71.16980 | 37913 ft | 466 kts | 222° |
| 2026-05-04 07:56 | 42.77867 | -71.22391 | 37931 ft | 464 kts | 222° |
| 2026-05-04 07:57 | 42.72789 | -71.27806 | 37925 ft | 464 kts | 222° |
| 2026-05-04 07:57 | 42.67698 | -71.33206 | 37952 ft | 465 kts | 222° |
| 2026-05-04 07:58 | 42.65150 | -71.35901 | 38259 ft | 463 kts | 222° |
| 2026-05-04 07:58 | 42.62614 | -71.38578 | 38550 ft | 461 kts | 221° |
| 2026-05-04 07:58 | 42.60081 | -71.41250 | 38740 ft | 461 kts | 221° |
| 2026-05-04 07:58 | 42.57543 | -71.43927 | 38895 ft | 462 kts | 221° |
| 2026-05-04 07:59 | 42.55005 | -71.46599 | 39050 ft | 462 kts | 221° |
| 2026-05-04 07:59 | 42.52464 | -71.49272 | 39218 ft | 462 kts | 221° |
| 2026-05-04 07:59 | 42.49926 | -71.51939 | 39355 ft | 462 kts | 221° |
| 2026-05-04 07:59 | 42.47384 | -71.54607 | 39538 ft | 461 kts | 221° |
| 2026-05-04 08:00 | 42.44845 | -71.57269 | 39680 ft | 462 kts | 221° |
| 2026-05-04 08:00 | 42.42307 | -71.59929 | 39811 ft | 462 kts | 221° |
| 2026-05-04 08:02 | 42.21985 | -71.81116 | 39915 ft | 461 kts | 221° |
| 2026-05-04 08:02 | 42.16893 | -71.86397 | 39919 ft | 461 kts | 221° |
| 2026-05-04 08:03 | 42.11479 | -71.91094 | 39949 ft | 465 kts | 213° |
| 2026-05-04 08:03 | 42.05735 | -71.95154 | 39944 ft | 467 kts | 211° |
| 2026-05-04 08:04 | 41.99944 | -71.99097 | 39948 ft | 467 kts | 211° |
| 2026-05-04 08:04 | 41.94146 | -72.03036 | 39955 ft | 466 kts | 211° |
| 2026-05-04 08:05 | 41.88370 | -72.06975 | 39959 ft | 465 kts | 212° |
| 2026-05-04 08:05 | 41.82601 | -72.10913 | 39960 ft | 465 kts | 211° |
| 2026-05-04 08:06 | 41.76827 | -72.14846 | 39960 ft | 465 kts | 212° |
| 2026-05-04 08:06 | 41.71063 | -72.18765 | 39963 ft | 464 kts | 212° |
| 2026-05-04 08:08 | 41.48046 | -72.34331 | 39964 ft | 464 kts | 212° |
| 2026-05-04 08:11 | 41.22580 | -72.52632 | 39969 ft | 458 kts | 219° |
| 2026-05-04 08:11 | 41.14752 | -72.59860 | 39972 ft | 456 kts | 219° |
| 2026-05-04 08:12 | 41.09539 | -72.64683 | 39978 ft | 457 kts | 219° |
| 2026-05-04 08:12 | 41.04348 | -72.69458 | 39992 ft | 457 kts | 219° |
| 2026-05-04 08:13 | 40.99121 | -72.74248 | 40001 ft | 457 kts | 219° |
| 2026-05-04 08:13 | 40.93888 | -72.79033 | 39997 ft | 457 kts | 219° |
| 2026-05-04 08:14 | 40.88709 | -72.83898 | 39985 ft | 455 kts | 221° |
| 2026-05-04 08:16 | 40.68411 | -73.03771 | 39980 ft | 455 kts | 221° |
| 2026-05-04 08:16 | 40.63313 | -73.08700 | 39984 ft | 454 kts | 221° |
| 2026-05-04 08:17 | 40.58216 | -73.13621 | 40002 ft | 454 kts | 221° |
| 2026-05-04 08:17 | 40.53119 | -73.18535 | 39982 ft | 454 kts | 221° |
| 2026-05-04 08:19 | 40.32761 | -73.38062 | 40014 ft | 453 kts | 220° |
| 2026-05-04 08:20 | 40.27662 | -73.42930 | 40024 ft | 453 kts | 220° |
| 2026-05-04 08:20 | 40.22574 | -73.47782 | 40026 ft | 452 kts | 220° |
| 2026-05-04 08:21 | 40.17465 | -73.52615 | 40026 ft | 453 kts | 220° |
| 2026-05-04 08:21 | 40.12357 | -73.57429 | 40029 ft | 452 kts | 220° |
| 2026-05-04 08:22 | 40.07262 | -73.62226 | 40042 ft | 451 kts | 220° |
| 2026-05-04 08:24 | 39.88309 | -73.76858 | 40045 ft | 461 kts | 208° |
| 2026-05-04 08:24 | 39.85336 | -73.78433 | 40045 ft | 462 kts | 207° |
| 2026-05-04 08:24 | 39.79370 | -73.81563 | 40048 ft | 462 kts | 207° |
| 2026-05-04 08:25 | 39.73419 | -73.84701 | 40046 ft | 461 kts | 208° |
| 2026-05-04 08:25 | 39.67482 | -73.87847 | 40051 ft | 460 kts | 208° |
| 2026-05-04 08:27 | 39.43778 | -74.00431 | 40074 ft | 458 kts | 211° |
| 2026-05-04 08:28 | 39.38493 | -74.04750 | 40068 ft | 450 kts | 223° |
| 2026-05-04 08:28 | 39.33660 | -74.09878 | 40067 ft | 449 kts | 224° |
| 2026-05-04 08:29 | 39.28918 | -74.15106 | 40072 ft | 448 kts | 225° |
| 2026-05-04 08:31 | 39.10678 | -74.34973 | 40078 ft | 445 kts | 224° |
| 2026-05-04 08:33 | 38.91638 | -74.55571 | 40090 ft | 446 kts | 226° |
| 2026-05-04 08:35 | 38.73406 | -74.77018 | 40096 ft | 442 kts | 225° |
| 2026-05-04 08:35 | 38.68637 | -74.82017 | 40098 ft | 443 kts | 223° |
| 2026-05-04 08:37 | 38.51851 | -74.99257 | 40103 ft | 440 kts | 224° |
| 2026-05-04 08:38 | 38.47238 | -75.04353 | 40115 ft | 438 kts | 226° |
| 2026-05-04 08:38 | 38.42550 | -75.09303 | 40119 ft | 443 kts | 221° |
| 2026-05-04 08:40 | 38.22681 | -75.27870 | 40119 ft | 441 kts | 221° |
| 2026-05-04 08:41 | 38.17754 | -75.32529 | 40113 ft | 441 kts | 221° |
| 2026-05-04 08:41 | 38.12829 | -75.37173 | 40109 ft | 440 kts | 221° |
| 2026-05-04 08:42 | 38.07915 | -75.41797 | 40108 ft | 440 kts | 221° |
| 2026-05-04 08:42 | 38.02975 | -75.46411 | 40107 ft | 442 kts | 220° |
| 2026-05-04 08:43 | 37.97923 | -75.50817 | 40092 ft | 444 kts | 219° |
| 2026-05-04 08:43 | 37.92815 | -75.55184 | 40120 ft | 441 kts | 219° |
| 2026-05-04 08:44 | 37.87745 | -75.59556 | 40118 ft | 440 kts | 220° |
| 2026-05-04 08:46 | 37.64842 | -75.71964 | 40118 ft | 450 kts | 207° |
| 2026-05-04 08:46 | 37.58980 | -75.74759 | 40121 ft | 450 kts | 207° |
| 2026-05-04 08:47 | 37.53124 | -75.77561 | 40116 ft | 450 kts | 207° |
| 2026-05-04 08:47 | 37.47269 | -75.80360 | 40115 ft | 451 kts | 207° |
| 2026-05-04 08:48 | 37.41437 | -75.83142 | 40109 ft | 451 kts | 207° |
| 2026-05-04 08:48 | 37.35560 | -75.85940 | 40111 ft | 452 kts | 207° |
| 2026-05-04 08:49 | 37.29687 | -75.88729 | 40104 ft | 450 kts | 207° |
| 2026-05-04 08:50 | 37.09241 | -75.98411 | 40103 ft | 448 kts | 207° |
| 2026-05-04 08:51 | 37.03466 | -76.01134 | 40116 ft | 446 kts | 207° |
| 2026-05-04 08:51 | 36.97654 | -76.03871 | 40119 ft | 446 kts | 207° |
| 2026-05-04 08:52 | 36.91845 | -76.06603 | 40119 ft | 446 kts | 207° |
| 2026-05-04 08:52 | 36.86038 | -76.09329 | 40114 ft | 445 kts | 207° |
| 2026-05-04 08:54 | 36.62929 | -76.20135 | 40136 ft | 444 kts | 207° |
| 2026-05-04 08:55 | 36.57153 | -76.22823 | 40138 ft | 443 kts | 207° |
| 2026-05-04 08:55 | 36.51374 | -76.25509 | 40142 ft | 443 kts | 207° |
| 2026-05-04 09:01 | 35.91171 | -76.53254 | 40153 ft | 437 kts | 207° |
| 2026-05-04 09:01 | 35.85688 | -76.56369 | 40140 ft | 433 kts | 212° |
| 2026-05-04 09:02 | 35.80297 | -76.59677 | 40142 ft | 433 kts | 212° |
| 2026-05-04 09:02 | 35.74917 | -76.63014 | 40117 ft | 433 kts | 212° |
| 2026-05-04 09:03 | 35.69537 | -76.66339 | 40143 ft | 432 kts | 212° |
| 2026-05-04 09:03 | 35.64193 | -76.69628 | 40143 ft | 432 kts | 212° |
| 2026-05-04 09:04 | 35.58809 | -76.72932 | 40142 ft | 432 kts | 212° |
| 2026-05-04 09:04 | 35.53417 | -76.76236 | 40146 ft | 433 kts | 212° |
| 2026-05-04 09:05 | 35.48031 | -76.79532 | 40143 ft | 432 kts | 212° |
| 2026-05-04 09:05 | 35.42657 | -76.82815 | 40146 ft | 432 kts | 212° |
| 2026-05-04 09:06 | 35.37273 | -76.86101 | 40143 ft | 432 kts | 212° |
| 2026-05-04 09:08 | 35.15718 | -76.99344 | 40145 ft | 434 kts | 213° |
| 2026-05-04 09:08 | 35.10339 | -77.02735 | 40164 ft | 435 kts | 213° |
| 2026-05-04 09:09 | 35.04957 | -77.06110 | 40148 ft | 434 kts | 213° |
| 2026-05-04 09:09 | 34.99569 | -77.09475 | 40165 ft | 434 kts | 213° |
| 2026-05-04 09:10 | 34.94231 | -77.12801 | 40162 ft | 434 kts | 213° |
| 2026-05-04 09:10 | 34.88848 | -77.16151 | 40159 ft | 434 kts | 213° |
| 2026-05-04 09:11 | 34.83471 | -77.19494 | 40152 ft | 434 kts | 212° |
| 2026-05-04 09:11 | 34.78095 | -77.22831 | 40151 ft | 434 kts | 212° |
| 2026-05-04 09:12 | 34.72699 | -77.26175 | 40146 ft | 436 kts | 212° |
| 2026-05-04 09:14 | 34.50989 | -77.39527 | 40143 ft | 439 kts | 210° |
| 2026-05-04 09:14 | 34.45120 | -77.41711 | 40142 ft | 450 kts | 198° |
| 2026-05-04 09:15 | 34.38926 | -77.43037 | 40140 ft | 452 kts | 196° |
| 2026-05-04 09:15 | 34.32702 | -77.44207 | 40126 ft | 453 kts | 195° |
| 2026-05-04 09:17 | 34.04770 | -77.49602 | 40133 ft | 452 kts | 196° |
| 2026-05-04 09:18 | 33.99562 | -77.50613 | 40138 ft | 452 kts | 196° |
| 2026-05-04 09:18 | 33.93390 | -77.51809 | 40137 ft | 452 kts | 196° |
| 2026-05-04 09:19 | 33.87182 | -77.53011 | 40134 ft | 452 kts | 196° |
| 2026-05-04 09:19 | 33.80964 | -77.54213 | 40129 ft | 452 kts | 196° |
| 2026-05-04 09:20 | 33.74765 | -77.55409 | 40135 ft | 451 kts | 196° |
| 2026-05-04 09:20 | 33.68563 | -77.56604 | 40135 ft | 451 kts | 196° |
| 2026-05-04 09:21 | 33.62358 | -77.57799 | 40136 ft | 451 kts | 196° |
| 2026-05-04 09:21 | 33.56242 | -77.59302 | 40148 ft | 446 kts | 201° |
| 2026-05-04 09:22 | 33.50302 | -77.61308 | 40144 ft | 448 kts | 202° |
| 2026-05-04 09:22 | 33.44316 | -77.63417 | 40130 ft | 449 kts | 202° |
| 2026-05-04 09:23 | 33.38321 | -77.65529 | 40143 ft | 449 kts | 202° |
| 2026-05-04 09:23 | 33.32324 | -77.67627 | 40116 ft | 449 kts | 202° |
| 2026-05-04 09:25 | 33.08332 | -77.75970 | 40135 ft | 449 kts | 202° |
| 2026-05-04 09:26 | 33.02341 | -77.78045 | 40137 ft | 447 kts | 202° |
| 2026-05-04 09:26 | 32.96367 | -77.80113 | 40138 ft | 447 kts | 202° |
| 2026-05-04 09:27 | 32.90424 | -77.82167 | 40140 ft | 447 kts | 202° |
| 2026-05-04 09:27 | 32.84450 | -77.84229 | 40140 ft | 447 kts | 202° |
| 2026-05-04 09:28 | 32.78468 | -77.86291 | 40140 ft | 447 kts | 202° |
| 2026-05-04 09:28 | 32.72487 | -77.88349 | 40140 ft | 447 kts | 202° |
| 2026-05-04 09:29 | 32.66507 | -77.90404 | 40143 ft | 447 kts | 202° |
| 2026-05-04 09:29 | 32.60500 | -77.92393 | 40143 ft | 448 kts | 201° |
| 2026-05-04 09:30 | 32.54475 | -77.94321 | 40139 ft | 448 kts | 201° |
| 2026-05-04 09:30 | 32.48467 | -77.96248 | 40147 ft | 448 kts | 201° |
| 2026-05-04 09:31 | 32.42417 | -77.98204 | 40140 ft | 452 kts | 201° |
| 2026-05-04 09:31 | 32.36335 | -78.00171 | 40143 ft | 453 kts | 201° |
| 2026-05-04 09:32 | 32.30249 | -78.02134 | 40125 ft | 453 kts | 201° |
| 2026-05-04 09:34 | 32.05947 | -78.09949 | 40140 ft | 452 kts | 201° |
| 2026-05-04 09:34 | 31.99884 | -78.11890 | 40143 ft | 450 kts | 202° |
| 2026-05-04 09:35 | 31.93844 | -78.13822 | 40138 ft | 449 kts | 202° |
| 2026-05-04 09:35 | 31.87812 | -78.15751 | 40142 ft | 449 kts | 202° |
| 2026-05-04 09:37 | 31.63742 | -78.23418 | 40143 ft | 448 kts | 202° |
| 2026-05-04 09:38 | 31.57723 | -78.25329 | 40141 ft | 448 kts | 202° |
| 2026-05-04 09:38 | 31.51708 | -78.27236 | 40101 ft | 447 kts | 202° |
| 2026-05-04 09:39 | 31.45719 | -78.29132 | 40141 ft | 444 kts | 202° |
| 2026-05-04 09:39 | 31.39789 | -78.31100 | 40138 ft | 442 kts | 203° |
| 2026-05-04 09:40 | 31.33875 | -78.33107 | 40138 ft | 442 kts | 203° |
| 2026-05-04 09:40 | 31.27957 | -78.35103 | 40135 ft | 443 kts | 203° |
| 2026-05-04 09:42 | 31.04427 | -78.42947 | 40135 ft | 439 kts | 203° |
| 2026-05-04 09:43 | 30.98544 | -78.44902 | 40112 ft | 439 kts | 204° |
| 2026-05-04 09:43 | 30.92677 | -78.46847 | 40133 ft | 437 kts | 204° |
| 2026-05-04 09:44 | 30.86824 | -78.48787 | 40129 ft | 437 kts | 204° |
| 2026-05-04 09:46 | 30.63456 | -78.56505 | 40124 ft | 434 kts | 204° |
| 2026-05-04 09:46 | 30.57644 | -78.58420 | 40133 ft | 433 kts | 204° |
| 2026-05-04 09:47 | 30.51836 | -78.60332 | 40138 ft | 434 kts | 204° |
| 2026-05-04 09:49 | 30.28672 | -78.67928 | 40128 ft | 433 kts | 205° |
| 2026-05-04 09:51 | 30.08192 | -78.74613 | 40115 ft | 439 kts | 204° |
| 2026-05-04 09:51 | 30.02322 | -78.76522 | 40110 ft | 439 kts | 204° |
| 2026-05-04 09:52 | 29.96443 | -78.78432 | 40114 ft | 439 kts | 204° |
| 2026-05-04 09:52 | 29.90558 | -78.80342 | 40076 ft | 438 kts | 205° |
| 2026-05-04 09:53 | 29.84742 | -78.82227 | 40114 ft | 436 kts | 205° |
| 2026-05-04 09:53 | 29.81831 | -78.83168 | 39801 ft | 432 kts | 205° |
| 2026-05-04 09:53 | 29.78911 | -78.84053 | 39121 ft | 436 kts | 201° |
| 2026-05-04 09:53 | 29.75892 | -78.84630 | 38350 ft | 443 kts | 197° |
| 2026-05-04 09:54 | 29.72821 | -78.85057 | 37423 ft | 447 kts | 196° |
| 2026-05-04 09:54 | 29.69712 | -78.85472 | 36429 ft | 451 kts | 195° |
| 2026-05-04 09:54 | 29.66576 | -78.85891 | 35459 ft | 456 kts | 195° |
| 2026-05-04 09:54 | 29.63403 | -78.86316 | 34442 ft | 461 kts | 195° |
| 2026-05-04 09:55 | 29.60206 | -78.86744 | 33541 ft | 462 kts | 194° |
| 2026-05-04 09:55 | 29.57007 | -78.87171 | 32580 ft | 463 kts | 194° |
| 2026-05-04 09:55 | 29.53801 | -78.87601 | 31615 ft | 464 kts | 194° |
| 2026-05-04 09:55 | 29.50591 | -78.88032 | 30669 ft | 466 kts | 194° |
| 2026-05-04 09:56 | 29.47364 | -78.88465 | 29606 ft | 467 kts | 194° |
| 2026-05-04 09:56 | 29.44129 | -78.88900 | 28461 ft | 470 kts | 193° |
| 2026-05-04 09:56 | 29.40888 | -78.89333 | 27641 ft | 466 kts | 193° |
| 2026-05-04 09:56 | 29.37703 | -78.89754 | 27280 ft | 453 kts | 193° |
| 2026-05-04 09:57 | 29.34625 | -78.90160 | 26944 ft | 438 kts | 194° |
| 2026-05-04 09:57 | 29.31686 | -78.90549 | 26690 ft | 425 kts | 194° |
| 2026-05-04 09:57 | 29.28792 | -78.90934 | 26434 ft | 412 kts | 194° |
| 2026-05-04 09:57 | 29.25993 | -78.91308 | 26195 ft | 399 kts | 194° |
| 2026-05-04 09:58 | 29.23278 | -78.91670 | 25958 ft | 387 kts | 194° |
| 2026-05-04 09:58 | 29.20648 | -78.92022 | 25747 ft | 375 kts | 194° |
| 2026-05-04 09:58 | 29.18096 | -78.92363 | 25543 ft | 363 kts | 195° |
| 2026-05-04 10:00 | 29.01712 | -78.94567 | 24079 ft | 332 kts | 195° |
| 2026-05-04 10:00 | 28.99420 | -78.94874 | 24080 ft | 331 kts | 195° |
| 2026-05-04 10:02 | 28.83386 | -78.97007 | 24072 ft | 331 kts | 195° |
| 2026-05-04 10:04 | 28.67293 | -78.99141 | 24062 ft | 334 kts | 195° |
| 2026-05-04 10:04 | 28.65733 | -78.99347 | 24061 ft | 334 kts | 195° |
| 2026-05-04 10:04 | 28.63421 | -78.99653 | 24062 ft | 334 kts | 195° |
| 2026-05-04 10:04 | 28.61140 | -78.99955 | 24062 ft | 334 kts | 195° |
| 2026-05-04 10:05 | 28.58829 | -79.00260 | 24058 ft | 334 kts | 195° |
| 2026-05-04 10:05 | 28.56519 | -79.00565 | 24056 ft | 334 kts | 195° |
| 2026-05-04 10:05 | 28.54209 | -79.00870 | 24056 ft | 334 kts | 195° |
| 2026-05-04 10:05 | 28.51893 | -79.01175 | 24056 ft | 334 kts | 195° |
| 2026-05-04 10:06 | 28.49584 | -79.01481 | 24042 ft | 335 kts | 195° |
| 2026-05-04 10:06 | 28.47259 | -79.01788 | 24055 ft | 336 kts | 195° |
| 2026-05-04 10:06 | 28.44935 | -79.02095 | 24050 ft | 337 kts | 195° |
| 2026-05-04 10:08 | 28.31200 | -79.04623 | 24043 ft | 328 kts | 205° |
| 2026-05-04 10:08 | 28.29032 | -79.05436 | 24042 ft | 328 kts | 205° |
| 2026-05-04 10:08 | 28.26868 | -79.06252 | 24045 ft | 329 kts | 205° |
| 2026-05-04 10:08 | 28.24691 | -79.07071 | 24043 ft | 330 kts | 205° |
| 2026-05-04 10:09 | 28.22501 | -79.07892 | 23996 ft | 334 kts | 205° |
| 2026-05-04 10:09 | 28.20229 | -79.08749 | 24025 ft | 355 kts | 205° |
| 2026-05-04 10:09 | 28.17810 | -79.09663 | 24024 ft | 377 kts | 205° |
| 2026-05-04 10:09 | 28.15245 | -79.10625 | 24022 ft | 399 kts | 204° |
| 2026-05-04 10:10 | 28.12547 | -79.11631 | 24025 ft | 413 kts | 204° |
| 2026-05-04 10:10 | 28.09797 | -79.12647 | 24023 ft | 416 kts | 204° |
| 2026-05-04 10:10 | 28.07039 | -79.13665 | 24032 ft | 417 kts | 204° |
| 2026-05-04 10:10 | 28.04286 | -79.14683 | 24034 ft | 417 kts | 204° |
| 2026-05-04 10:11 | 28.01530 | -79.15704 | 24035 ft | 417 kts | 204° |
| 2026-05-04 10:11 | 27.98771 | -79.16727 | 24020 ft | 416 kts | 204° |
| 2026-05-04 10:11 | 27.96049 | -79.17736 | 24021 ft | 417 kts | 204° |
| 2026-05-04 10:11 | 27.93297 | -79.18757 | 23998 ft | 417 kts | 204° |
| 2026-05-04 10:12 | 27.90536 | -79.19781 | 24019 ft | 418 kts | 204° |
| 2026-05-04 10:12 | 27.87772 | -79.20805 | 24017 ft | 419 kts | 204° |
| 2026-05-04 10:12 | 27.84999 | -79.21832 | 24018 ft | 419 kts | 204° |
| 2026-05-04 10:12 | 27.82229 | -79.22858 | 24021 ft | 419 kts | 204° |
| 2026-05-04 10:13 | 27.79453 | -79.23885 | 24018 ft | 419 kts | 204° |
| 2026-05-04 10:13 | 27.76684 | -79.24909 | 24011 ft | 419 kts | 204° |
| 2026-05-04 10:13 | 27.73916 | -79.25932 | 24017 ft | 419 kts | 204° |
| 2026-05-04 10:13 | 27.71142 | -79.26956 | 24012 ft | 419 kts | 204° |
| 2026-05-04 10:14 | 27.68370 | -79.27980 | 24015 ft | 419 kts | 204° |
| 2026-05-04 10:14 | 27.65597 | -79.29003 | 24014 ft | 419 kts | 204° |
| 2026-05-04 10:16 | 27.46127 | -79.36173 | 24010 ft | 420 kts | 204° |
| 2026-05-04 10:16 | 27.43388 | -79.37180 | 24010 ft | 420 kts | 204° |
| 2026-05-04 10:16 | 27.40605 | -79.38202 | 24002 ft | 420 kts | 204° |
| 2026-05-04 10:16 | 27.37827 | -79.39221 | 24001 ft | 420 kts | 204° |
| 2026-05-04 10:17 | 27.35047 | -79.40242 | 24002 ft | 420 kts | 204° |
| 2026-05-04 10:17 | 27.32259 | -79.41264 | 24001 ft | 420 kts | 204° |
| 2026-05-04 10:19 | 27.12685 | -79.48426 | 23998 ft | 424 kts | 204° |
| 2026-05-04 10:19 | 27.09879 | -79.49450 | 23991 ft | 424 kts | 204° |
| 2026-05-04 10:19 | 27.07089 | -79.50466 | 23519 ft | 418 kts | 204° |
| 2026-05-04 10:19 | 27.04323 | -79.51475 | 22682 ft | 417 kts | 204° |
| 2026-05-04 10:20 | 27.01570 | -79.52482 | 22176 ft | 414 kts | 204° |
| 2026-05-04 10:20 | 26.98826 | -79.53481 | 22008 ft | 415 kts | 204° |
| 2026-05-04 10:20 | 26.96123 | -79.54464 | 21581 ft | 411 kts | 204° |
| 2026-05-04 10:20 | 26.93404 | -79.55452 | 20861 ft | 408 kts | 204° |
| 2026-05-04 10:21 | 26.90723 | -79.56425 | 20319 ft | 402 kts | 204° |
| 2026-05-04 10:21 | 26.88073 | -79.57390 | 20051 ft | 400 kts | 204° |
| 2026-05-04 10:21 | 26.85431 | -79.58349 | 19762 ft | 399 kts | 204° |
| 2026-05-04 10:21 | 26.82788 | -79.59301 | 19064 ft | 397 kts | 204° |
| 2026-05-04 10:22 | 26.77595 | -79.61167 | 17789 ft | 387 kts | 204° |
| 2026-05-04 10:22 | 26.75047 | -79.62083 | 17220 ft | 381 kts | 204° |
| 2026-05-04 10:22 | 26.72571 | -79.62970 | 17013 ft | 364 kts | 204° |
| 2026-05-04 10:23 | 26.70232 | -79.63804 | 16987 ft | 341 kts | 204° |
| 2026-05-04 10:23 | 26.67977 | -79.64615 | 16990 ft | 339 kts | 205° |
| 2026-05-04 10:25 | 26.60716 | -79.67240 | 16981 ft | 338 kts | 204° |
| 2026-05-04 10:25 | 26.58476 | -79.68025 | 16832 ft | 336 kts | 204° |
| 2026-05-04 10:25 | 26.56258 | -79.68796 | 16340 ft | 333 kts | 204° |
| 2026-05-04 10:25 | 26.56196 | -79.68817 | 16329 ft | 333 kts | 204° |
| 2026-05-04 10:26 | 26.54778 | -79.69311 | 16108 ft | 332 kts | 204° |
| 2026-05-04 10:26 | 26.52562 | -79.70086 | 15987 ft | 335 kts | 204° |
| 2026-05-04 10:26 | 26.50339 | -79.70864 | 15975 ft | 335 kts | 204° |
| 2026-05-04 10:26 | 26.48145 | -79.71633 | 15969 ft | 334 kts | 204° |
| 2026-05-04 10:27 | 26.46038 | -79.72640 | 15976 ft | 326 kts | 217° |
| 2026-05-04 10:27 | 26.44313 | -79.74213 | 15982 ft | 317 kts | 230° |
| 2026-05-04 10:27 | 26.42811 | -79.76010 | 15983 ft | 317 kts | 232° |
| 2026-05-04 10:27 | 26.41333 | -79.77831 | 15839 ft | 312 kts | 232° |
| 2026-05-04 10:28 | 26.39874 | -79.79621 | 15244 ft | 312 kts | 232° |
| 2026-05-04 10:28 | 26.38442 | -79.81451 | 14594 ft | 312 kts | 236° |
| 2026-05-04 10:28 | 26.37165 | -79.83401 | 14071 ft | 310 kts | 238° |
| 2026-05-04 10:28 | 26.35956 | -79.85340 | 13792 ft | 299 kts | 239° |
| 2026-05-04 10:29 | 26.34792 | -79.87208 | 13582 ft | 287 kts | 239° |
| 2026-05-04 10:29 | 26.33675 | -79.88996 | 13334 ft | 276 kts | 239° |
| 2026-05-04 10:29 | 26.32601 | -79.90718 | 12916 ft | 273 kts | 239° |
| 2026-05-04 10:29 | 26.31527 | -79.92450 | 12394 ft | 273 kts | 239° |
| 2026-05-04 10:30 | 26.30436 | -79.94196 | 11879 ft | 273 kts | 239° |
| 2026-05-04 10:30 | 26.29347 | -79.95933 | 11380 ft | 273 kts | 239° |
| 2026-05-04 10:30 | 26.28261 | -79.97666 | 11069 ft | 272 kts | 239° |
| 2026-05-04 10:30 | 26.27173 | -79.99401 | 11002 ft | 274 kts | 239° |
| 2026-05-04 10:31 | 26.25991 | -80.01072 | 10996 ft | 277 kts | 230° |
| 2026-05-04 10:31 | 26.24393 | -80.02304 | 10998 ft | 286 kts | 208° |
| 2026-05-04 10:32 | 26.11214 | -80.01285 | 10293 ft | 301 kts | 182° |
| 2026-05-04 10:33 | 26.09123 | -80.01181 | 9861 ft | 300 kts | 182° |
| 2026-05-04 10:33 | 26.07033 | -80.01060 | 9287 ft | 302 kts | 180° |
| 2026-05-04 10:33 | 26.04926 | -80.00892 | 8661 ft | 305 kts | 180° |
| 2026-05-04 10:33 | 26.02844 | -80.00715 | 8054 ft | 295 kts | 179° |
| 2026-05-04 10:34 | 26.00830 | -80.00546 | 7459 ft | 286 kts | 179° |
| 2026-05-04 10:34 | 25.98878 | -80.00385 | 6931 ft | 276 kts | 179° |
| 2026-05-04 10:34 | 25.96998 | -80.00141 | 6384 ft | 270 kts | 171° |
| 2026-05-04 10:34 | 25.95190 | -79.99643 | 5777 ft | 266 kts | 168° |
| 2026-05-04 10:35 | 25.93449 | -79.99100 | 5252 ft | 258 kts | 166° |
| 2026-05-04 10:35 | 25.91778 | -79.98558 | 5033 ft | 241 kts | 166° |
| 2026-05-04 10:35 | 25.90193 | -79.98039 | 4996 ft | 237 kts | 167° |
| 2026-05-04 10:35 | 25.88617 | -79.97521 | 4990 ft | 235 kts | 167° |
| 2026-05-04 10:36 | 25.87047 | -79.97003 | 4990 ft | 235 kts | 167° |
| 2026-05-04 10:36 | 25.85478 | -79.96483 | 4995 ft | 235 kts | 166° |
| 2026-05-04 10:36 | 25.83907 | -79.95983 | 4989 ft | 234 kts | 170° |
| 2026-05-04 10:36 | 25.82303 | -79.95844 | 4991 ft | 229 kts | 190° |
| 2026-05-04 10:37 | 25.80816 | -79.96349 | 4840 ft | 220 kts | 212° |
| 2026-05-04 10:37 | 25.79661 | -79.97421 | 4492 ft | 215 kts | 234° |
| 2026-05-04 10:37 | 25.79066 | -79.98857 | 4312 ft | 200 kts | 266° |
| 2026-05-04 10:37 | 25.79205 | -80.00320 | 4221 ft | 185 kts | 280° |
| 2026-05-04 10:39 | 25.79556 | -80.07644 | 3262 ft | 147 kts | 268° |
| 2026-05-04 10:39 | 25.79521 | -80.08770 | 2978 ft | 145 kts | 268° |
| 2026-05-04 10:39 | 25.79472 | -80.09893 | 2651 ft | 147 kts | 266° |
| 2026-05-04 10:40 | 25.79428 | -80.11017 | 2353 ft | 143 kts | 267° |
| 2026-05-04 10:40 | 25.79382 | -80.12100 | 2014 ft | 139 kts | 267° |
| 2026-05-04 10:40 | 25.79340 | -80.13172 | 1837 ft | 141 kts | 268° |
| 2026-05-04 10:40 | 25.79303 | -80.14266 | 1815 ft | 142 kts | 268° |
| 2026-05-04 10:41 | 25.79267 | -80.15347 | 1800 ft | 137 kts | 268° |
| 2026-05-04 10:41 | 25.79230 | -80.16409 | 1518 ft | 140 kts | 268° |
| 2026-05-04 10:41 | 25.79188 | -80.17470 | 1322 ft | 136 kts | 269° |
| 2026-05-04 10:41 | 25.79145 | -80.18521 | 1038 ft | 139 kts | 268° |
| 2026-05-04 10:42 | 25.79099 | -80.19588 | 823 ft | 137 kts | 270° |
| 2026-05-04 10:42 | 25.79051 | -80.20654 | 707 ft | 139 kts | 269° |
| 2026-05-04 10:42 | 25.78983 | -80.21729 | 698 ft | 139 kts | 268° |
| 2026-05-04 10:42 | 25.78909 | -80.22821 | 637 ft | 143 kts | 268° |
| 2026-05-04 10:43 | 25.78898 | -80.23914 | 467 ft | 139 kts | 272° |
| 2026-05-04 10:44 | 25.78711 | -80.29097 | 27 ft | 28 kts | 272° |
| 2026-05-04 10:45 | 25.78750 | -80.29185 | 27 ft | 1 kts | 350° |
| 2026-05-04 10:45 | 25.78755 | -80.29184 | 27 ft | 0 kts | 3° |
| 2026-05-04 10:49 | 25.78823 | -80.29168 | 29 ft | 8 kts | 12° |
| 2026-05-04 10:49 | 25.78886 | -80.29139 | 26 ft | 10 kts | 44° |
| 2026-05-04 10:50 | 25.78903 | -80.29068 | 28 ft | 0 kts | 85° |
| 2026-05-04 10:51 | 25.78950 | -80.28762 | 23 ft | 18 kts | 84° |
| 2026-05-04 10:52 | 25.79003 | -80.28697 | 27 ft | 8 kts | 8° |
| 2026-05-04 10:52 | 25.79045 | -80.28693 | 29 ft | 10 kts | 4° |
| 2026-05-04 10:52 | 25.79117 | -80.28705 | 30 ft | 11 kts | 332° |
| 2026-05-04 10:54 | 25.79344 | -80.28307 | 28 ft | 9 kts | 81° |
| 2026-05-04 10:54 | 25.79367 | -80.28230 | 28 ft | 12 kts | 55° |
| 2026-05-04 10:56 | 25.79449 | -80.28168 | 29 ft | 0 kts | 28° |